createdAt,value
2022-12-17T00:01:47.213Z,40.80
2022-12-17T00:04:28.170Z,39.67
2022-12-17T00:07:09.075Z,39.10
2022-12-17T00:09:50.637Z,39.40
2022-12-17T00:12:31.678Z,40.40
2022-12-17T00:15:25.198Z,40.83
2022-12-17T00:18:06.125Z,42.47
2022-12-17T00:20:46.788Z,44.07
2022-12-17T00:23:28.260Z,38.13
2022-12-17T00:26:09.952Z,37.23
2022-12-17T00:28:50.871Z,40.00
2022-12-17T00:31:33.763Z,40.60
2022-12-17T00:34:14.599Z,37.53
2022-12-17T00:36:55.569Z,39.00
2022-12-17T00:39:36.570Z,36.87
2022-12-17T00:42:17.419Z,38.33
2022-12-17T00:44:58.410Z,41.87
2022-12-17T00:47:42.366Z,38.90
2022-12-17T00:50:26.572Z,38.13
2022-12-17T00:53:07.350Z,37.13
2022-12-17T00:55:48.433Z,35.90
2022-12-17T00:58:29.181Z,38.13
2022-12-17T01:01:10.572Z,39.27
2022-12-17T01:03:52.605Z,38.07
2022-12-17T01:06:33.537Z,38.63
2022-12-17T01:09:15.563Z,39.33
2022-12-17T01:11:56.870Z,40.40
2022-12-17T01:14:37.742Z,40.27
2022-12-17T01:17:18.849Z,37.93
2022-12-17T01:20:01.913Z,40.37
2022-12-17T01:22:42.921Z,38.83
2022-12-17T01:25:25.426Z,39.20
2022-12-17T01:28:07.795Z,39.90
2022-12-17T01:30:48.514Z,40.47
2022-12-17T01:33:29.989Z,42.37
2022-12-17T01:36:15.778Z,40.33
2022-12-17T01:38:56.522Z,39.93
2022-12-17T01:41:38.649Z,42.43
2022-12-17T01:44:53.041Z,42.47
2022-12-17T01:47:34.099Z,42.23
2022-12-17T01:50:15.085Z,41.07
2022-12-17T01:52:57.645Z,40.97
2022-12-17T01:55:43.966Z,39.37
2022-12-17T01:58:31.240Z,39.93
2022-12-17T02:01:12.235Z,37.37
2022-12-17T02:03:49.432Z,35.13
2022-12-17T02:06:39.443Z,35.67
2022-12-17T02:09:28.331Z,36.37
2022-12-17T02:12:21.587Z,36.90
2022-12-17T02:15:10.166Z,37.50
2022-12-17T02:17:59.600Z,36.47
2022-12-17T02:20:48.983Z,35.47
2022-12-17T02:23:52.530Z,36.53
2022-12-17T02:26:47.178Z,37.57
2022-12-17T02:29:27.937Z,35.90
2022-12-17T02:32:09.971Z,38.73
2022-12-17T02:35:01.152Z,37.77
2022-12-17T02:37:42.343Z,36.53
2022-12-17T02:40:24.849Z,36.03
2022-12-17T02:43:08.453Z,39.77
2022-12-17T02:45:52.810Z,38.93
2022-12-17T02:48:34.871Z,38.37
2022-12-17T02:51:16.774Z,36.97
2022-12-17T02:54:01.819Z,40.40
2022-12-17T02:56:42.865Z,36.67
2022-12-17T02:59:25.118Z,40.43
2022-12-17T03:02:06.262Z,39.70
2022-12-17T03:04:46.681Z,38.93
2022-12-17T03:07:27.568Z,39.97
2022-12-17T03:10:08.360Z,39.27
2022-12-17T03:12:56.771Z,43.20
2022-12-17T03:15:38.896Z,40.93
2022-12-17T03:18:19.476Z,42.03
2022-12-17T03:21:00.267Z,41.13
2022-12-17T03:23:41.091Z,37.53
2022-12-17T03:26:22.704Z,39.13
2022-12-17T03:29:03.488Z,40.77
2022-12-17T03:31:45.586Z,41.93
2022-12-17T03:34:26.691Z,39.70
2022-12-17T03:37:07.557Z,39.40
2022-12-17T03:39:48.705Z,41.37
2022-12-17T03:42:29.460Z,37.43
2022-12-17T03:45:10.115Z,40.57
2022-12-17T03:47:52.456Z,37.73
2022-12-17T03:50:33.159Z,38.07
2022-12-17T03:53:13.825Z,37.53
2022-12-17T03:55:54.798Z,38.13
2022-12-17T03:58:35.740Z,39.07
2022-12-17T04:01:16.478Z,41.10
2022-12-17T04:03:58.783Z,39.03
2022-12-17T04:06:39.898Z,38.90
2022-12-17T04:09:20.728Z,38.80
2022-12-17T04:12:01.733Z,35.97
2022-12-17T04:14:42.837Z,38.77
2022-12-17T04:17:23.409Z,35.70
2022-12-17T04:20:08.880Z,35.87
2022-12-17T04:22:49.592Z,36.50
2022-12-17T04:25:30.143Z,36.90
2022-12-17T04:28:22.299Z,37.20
2022-12-17T04:31:03.325Z,33.43
2022-12-17T04:33:43.897Z,36.83
2022-12-17T04:36:27.084Z,36.33
2022-12-17T04:39:08.120Z,36.77
2022-12-17T04:41:48.964Z,35.57
2022-12-17T04:44:29.871Z,34.57
2022-12-17T04:47:10.591Z,32.63
2022-12-17T04:49:51.538Z,33.93
2022-12-17T04:52:33.982Z,35.83
2022-12-17T04:55:14.889Z,34.00
2022-12-17T04:57:55.692Z,34.70
2022-12-17T05:00:36.595Z,34.77
2022-12-17T05:03:24.383Z,35.33
2022-12-17T05:06:05.268Z,35.57
2022-12-17T05:08:47.353Z,37.13
2022-12-17T05:11:28.394Z,34.00
2022-12-17T05:14:14.614Z,36.23
2022-12-17T05:16:55.253Z,35.70
2022-12-17T05:19:36.431Z,34.17
2022-12-17T05:22:17.057Z,35.83
2022-12-17T05:24:59.024Z,36.63
2022-12-17T05:27:39.690Z,34.10
2022-12-17T05:30:20.580Z,34.47
2022-12-17T05:33:00.774Z,37.80
2022-12-17T05:35:41.468Z,34.53
2022-12-17T05:38:23.612Z,32.83
2022-12-17T05:41:17.431Z,33.40
2022-12-17T05:43:58.067Z,32.70
2022-12-17T05:46:39.076Z,32.80
2022-12-17T05:49:31.417Z,33.57
2022-12-17T05:52:12.298Z,33.63
2022-12-17T05:54:53.074Z,35.00
2022-12-17T05:57:35.153Z,34.90
2022-12-17T06:00:15.978Z,34.73
2022-12-17T06:02:56.959Z,32.53
2022-12-17T06:05:37.963Z,31.73
2022-12-17T06:08:23.442Z,31.07
2022-12-17T06:11:04.501Z,32.23
2022-12-17T06:14:00.999Z,32.80
2022-12-17T06:16:42.072Z,30.50
2022-12-17T06:19:23.144Z,30.07
2022-12-17T06:22:03.856Z,29.53
2022-12-17T06:24:46.487Z,31.90
2022-12-17T06:27:27.479Z,29.90
2022-12-17T06:30:13.032Z,29.10
2022-12-17T06:32:57.636Z,27.70
2022-12-17T06:35:38.678Z,28.97
2022-12-17T06:38:20.911Z,28.13
2022-12-17T06:41:01.977Z,28.70
2022-12-17T06:43:42.731Z,28.97
2022-12-17T06:46:25.212Z,29.27
2022-12-17T06:49:06.168Z,27.27
2022-12-17T06:51:47.205Z,26.17
2022-12-17T06:54:28.059Z,27.37
2022-12-17T06:57:05.202Z,28.57
2022-12-17T06:59:45.965Z,28.53
2022-12-17T07:02:28.675Z,27.20
2022-12-17T07:05:09.307Z,26.97
2022-12-17T07:07:50.392Z,27.30
2022-12-17T07:10:31.333Z,26.90
2022-12-17T07:13:12.262Z,31.23
2022-12-17T07:15:53.138Z,32.13
2022-12-17T07:18:35.154Z,28.70
2022-12-17T07:21:16.218Z,27.30
2022-12-17T07:24:04.685Z,28.37
2022-12-17T07:26:45.652Z,28.90
2022-12-17T07:29:35.074Z,28.43
2022-12-17T07:32:16.094Z,30.10
2022-12-17T07:34:58.091Z,28.93
2022-12-17T07:37:39.113Z,30.33
2022-12-17T07:40:19.963Z,27.30
2022-12-17T07:43:00.957Z,28.83
2022-12-17T07:45:41.638Z,28.17
2022-12-17T07:48:37.507Z,28.73
2022-12-17T07:51:19.856Z,29.97
2022-12-17T07:54:00.538Z,30.00
2022-12-17T07:56:41.214Z,26.53
2022-12-17T07:59:21.991Z,25.63
2022-12-17T08:02:02.960Z,26.60
2022-12-17T08:04:44.170Z,25.23
2022-12-17T08:07:26.593Z,26.10
2022-12-17T08:10:06.763Z,25.73
2022-12-17T08:12:47.317Z,26.53
2022-12-17T08:15:28.860Z,25.63
2022-12-17T08:18:09.973Z,26.40
2022-12-17T08:20:50.866Z,25.27
2022-12-17T08:23:33.354Z,27.00
2022-12-17T08:26:14.235Z,26.73
2022-12-17T08:28:55.288Z,28.43
2022-12-17T08:31:36.374Z,26.93
2022-12-17T08:34:17.179Z,26.47
2022-12-17T08:36:58.039Z,26.47
2022-12-17T08:39:40.173Z,26.03
2022-12-17T08:42:20.877Z,27.97
2022-12-17T08:45:01.883Z,27.13
2022-12-17T08:47:42.727Z,27.33
2022-12-17T08:50:24.977Z,26.73
2022-12-17T08:53:05.138Z,27.57
2022-12-17T08:55:47.071Z,27.93
2022-12-17T08:58:28.200Z,27.37
2022-12-17T09:01:09.022Z,26.83
2022-12-17T09:03:49.827Z,28.17
2022-12-17T09:06:35.932Z,24.60
2022-12-17T09:09:18.815Z,24.47
2022-12-17T09:12:01.262Z,24.53
2022-12-17T09:14:41.946Z,24.10
2022-12-17T09:17:22.807Z,23.53
2022-12-17T09:20:03.557Z,24.30
2022-12-17T09:22:44.710Z,27.53
2022-12-17T09:25:26.392Z,28.93
2022-12-17T09:28:08.437Z,25.67
2022-12-17T09:30:49.517Z,23.90
2022-12-17T09:33:34.093Z,26.83
2022-12-17T09:36:15.051Z,28.23
2022-12-17T09:38:55.990Z,27.47
2022-12-17T09:41:45.522Z,28.30
2022-12-17T09:44:38.809Z,24.23
2022-12-17T09:47:29.445Z,25.17
2022-12-17T09:50:11.258Z,26.73
2022-12-17T09:52:57.864Z,26.53
2022-12-17T09:55:42.605Z,24.77
2022-12-17T09:58:32.506Z,26.17
2022-12-17T10:01:15.282Z,25.23
2022-12-17T10:03:57.809Z,25.57
2022-12-17T10:06:42.311Z,26.90
2022-12-17T10:09:31.605Z,26.20
2022-12-17T10:12:12.802Z,26.60
2022-12-17T10:14:53.494Z,26.03
2022-12-17T10:17:45.528Z,25.83
2022-12-17T10:20:41.084Z,25.03
2022-12-17T10:23:20.985Z,25.57
2022-12-17T10:26:10.090Z,26.20
2022-12-17T10:28:51.512Z,24.37
2022-12-17T10:31:38.104Z,26.07
2022-12-17T10:34:20.226Z,24.90
2022-12-17T10:37:05.179Z,26.10
2022-12-17T10:39:46.094Z,29.60
2022-12-17T10:42:40.316Z,31.53
2022-12-17T10:46:02.322Z,28.23
2022-12-17T10:48:45.445Z,28.83
2022-12-17T10:51:51.854Z,28.00
2022-12-17T10:54:48.692Z,28.37
2022-12-17T10:57:44.539Z,27.37
2022-12-17T11:00:47.350Z,30.47
2022-12-17T11:03:48.438Z,26.83
2022-12-17T11:06:42.401Z,26.37
2022-12-17T11:09:37.217Z,26.47
2022-12-17T11:12:21.371Z,26.57
2022-12-17T11:15:09.823Z,26.30
2022-12-17T11:17:56.487Z,28.83
2022-12-17T11:20:47.298Z,26.43
2022-12-17T11:23:38.443Z,25.60
2022-12-17T11:26:25.202Z,27.20
2022-12-17T11:29:06.253Z,25.83
2022-12-17T11:32:04.790Z,29.77
2022-12-17T11:35:01.258Z,27.10
2022-12-17T11:37:49.204Z,28.40
2022-12-17T11:40:40.440Z,29.43
2022-12-17T11:43:34.676Z,28.27
2022-12-17T11:46:27.475Z,27.03
2022-12-17T11:49:20.227Z,27.27
2022-12-17T11:52:13.714Z,25.30
2022-12-17T11:55:04.580Z,26.37
2022-12-17T11:57:54.661Z,24.53
2022-12-17T12:00:41.462Z,25.37
2022-12-17T12:03:52.915Z,27.50
2022-12-17T12:06:42.822Z,29.17
2022-12-17T12:09:33.850Z,28.97
2022-12-17T12:12:23.470Z,29.17
2022-12-17T12:15:23.857Z,29.70
2022-12-17T12:18:13.467Z,28.77
2022-12-17T12:21:25.807Z,27.67
2022-12-17T12:24:18.612Z,28.93
2022-12-17T12:27:10.272Z,27.73
2022-12-17T12:30:01.802Z,30.03
2022-12-17T12:32:52.294Z,28.70
2022-12-17T12:35:38.206Z,28.13
2022-12-17T12:38:19.363Z,30.37
2022-12-17T12:41:13.509Z,29.83
2022-12-17T12:43:58.912Z,26.97
2022-12-17T12:46:59.111Z,29.50
2022-12-17T12:49:44.842Z,28.80
2022-12-17T12:52:33.769Z,28.30
2022-12-17T12:55:14.749Z,29.27
2022-12-17T12:58:15.418Z,30.10
2022-12-17T13:00:58.485Z,26.73
2022-12-17T13:03:46.949Z,30.40
2022-12-17T13:06:10.707Z,30.97
2022-12-17T13:08:35.866Z,31.63
2022-12-17T13:11:12.650Z,31.03
2022-12-17T13:13:55.707Z,28.93
2022-12-17T13:16:43.646Z,29.23
2022-12-17T13:19:22.509Z,33.17
2022-12-17T13:21:45.833Z,29.97
2022-12-17T13:24:24.716Z,30.27
2022-12-17T13:26:48.114Z,30.90
2022-12-17T13:29:25.255Z,29.70
2022-12-17T13:32:04.212Z,28.43
2022-12-17T13:34:36.556Z,30.53
2022-12-17T13:37:07.149Z,28.87
2022-12-17T13:39:40.845Z,29.53
2022-12-17T13:42:04.777Z,32.57
2022-12-17T13:44:33.238Z,31.60
2022-12-17T13:46:57.472Z,29.23
2022-12-17T13:49:23.296Z,30.27
2022-12-17T13:51:47.828Z,31.97
2022-12-17T13:54:18.263Z,31.13
2022-12-17T13:56:43.858Z,29.43
2022-12-17T13:59:09.454Z,31.07
2022-12-17T14:01:34.004Z,29.47
2022-12-17T14:04:07.360Z,32.40
2022-12-17T14:06:36.593Z,30.53
2022-12-17T14:09:00.431Z,29.57
2022-12-17T14:11:41.629Z,30.57
2022-12-17T14:14:16.311Z,30.53
2022-12-17T14:16:49.004Z,29.90
2022-12-17T14:19:14.081Z,29.47
2022-12-17T14:21:38.484Z,30.83
2022-12-17T14:24:01.927Z,28.90
2022-12-17T14:26:25.349Z,30.63
2022-12-17T14:28:51.737Z,30.80
2022-12-17T14:31:27.762Z,29.93
2022-12-17T14:34:07.183Z,28.77
2022-12-17T14:36:32.069Z,29.80
2022-12-17T14:38:58.279Z,29.83
2022-12-17T14:41:39.237Z,29.60
2022-12-17T14:44:04.329Z,30.07
2022-12-17T14:46:35.506Z,33.07
2022-12-17T14:49:04.867Z,32.77
2022-12-17T14:51:32.909Z,32.90
2022-12-17T14:54:22.306Z,30.87
2022-12-17T14:56:47.208Z,30.90
2022-12-17T14:59:34.353Z,31.57
2022-12-17T15:02:02.075Z,30.30
2022-12-17T15:04:25.571Z,31.30
2022-12-17T15:06:49.581Z,31.57
2022-12-17T15:09:13.953Z,31.03
2022-12-17T15:11:37.326Z,30.63
2022-12-17T15:14:00.652Z,32.07
2022-12-17T15:16:24.296Z,30.77
2022-12-17T15:18:49.691Z,30.93
2022-12-17T15:21:13.769Z,31.73
2022-12-17T15:23:42.507Z,33.23
2022-12-17T15:26:06.147Z,30.97
2022-12-17T15:28:29.611Z,33.53
2022-12-17T15:30:52.950Z,34.40
2022-12-17T15:33:16.815Z,33.80
2022-12-17T15:35:43.799Z,31.57
2022-12-17T15:38:08.068Z,34.37
2022-12-17T15:40:31.630Z,33.57
2022-12-17T15:43:15.142Z,32.30
2022-12-17T15:45:38.746Z,34.37
2022-12-17T15:48:02.007Z,33.00
2022-12-17T15:50:25.289Z,31.13
2022-12-17T15:52:50.051Z,31.97
2022-12-17T15:55:17.065Z,31.33
2022-12-17T15:57:40.346Z,30.87
2022-12-17T16:00:03.639Z,31.63
2022-12-17T16:02:28.695Z,32.13
2022-12-17T16:04:52.694Z,32.03
2022-12-17T16:07:16.444Z,31.97
2022-12-17T16:09:41.095Z,31.37
2022-12-17T16:12:04.797Z,31.00
2022-12-17T16:14:28.098Z,31.80
2022-12-17T16:16:52.053Z,30.53
2022-12-17T16:19:15.261Z,30.47
2022-12-17T16:21:43.370Z,30.80
2022-12-17T16:24:10.761Z,30.53
2022-12-17T16:26:35.910Z,43.50
2022-12-17T16:28:59.480Z,34.73
2022-12-17T16:31:22.882Z,31.97
2022-12-17T16:33:48.122Z,31.07
2022-12-17T16:36:15.434Z,32.97
2022-12-17T16:38:45.673Z,32.63
2022-12-17T16:41:09.009Z,33.93
2022-12-17T16:43:36.265Z,34.80
2022-12-17T16:45:59.564Z,32.10
2022-12-17T16:48:23.577Z,30.60
2022-12-17T16:50:47.967Z,30.70
2022-12-17T16:53:11.182Z,31.23
2022-12-17T16:55:34.597Z,31.83
2022-12-17T16:57:57.877Z,32.83
2022-12-17T17:00:22.926Z,31.23
2022-12-17T17:02:53.266Z,30.67
2022-12-17T17:05:17.171Z,31.67
2022-12-17T17:07:40.378Z,30.57
2022-12-17T17:10:03.665Z,30.37
2022-12-17T17:12:26.983Z,30.50
2022-12-17T17:14:53.272Z,31.00
2022-12-17T17:17:19.147Z,29.00
2022-12-17T17:20:02.391Z,28.70
2022-12-17T17:22:25.580Z,29.20
2022-12-17T17:24:48.838Z,30.60
2022-12-17T17:27:12.209Z,29.60
2022-12-17T17:29:35.848Z,30.67
2022-12-17T17:32:10.546Z,30.97
2022-12-17T17:34:38.868Z,31.03
2022-12-17T17:37:02.095Z,30.27
2022-12-17T17:39:25.766Z,29.47
2022-12-17T17:41:49.030Z,28.60
2022-12-17T17:44:15.004Z,29.90
2022-12-17T17:46:38.426Z,28.40
2022-12-17T17:49:05.248Z,28.27
2022-12-17T17:52:07.375Z,30.30
2022-12-17T17:54:16.005Z,30.03
2022-12-17T17:56:41.250Z,28.40
2022-12-17T17:59:09.142Z,29.37
2022-12-17T18:01:35.970Z,28.83
2022-12-17T18:04:02.248Z,29.43
2022-12-17T18:06:26.574Z,31.07
2022-12-17T18:08:51.184Z,30.80
2022-12-17T18:11:22.831Z,29.57
2022-12-17T18:13:55.254Z,28.50
2022-12-17T18:16:18.846Z,28.43
2022-12-17T18:18:42.373Z,26.83
2022-12-17T18:21:08.815Z,28.20
2022-12-17T18:23:32.232Z,26.80
2022-12-17T18:25:57.186Z,26.93
2022-12-17T18:28:20.487Z,28.50
2022-12-17T18:30:46.742Z,25.93
2022-12-17T18:33:10.147Z,28.03
2022-12-17T18:35:33.455Z,25.67
2022-12-17T18:37:57.050Z,25.97
2022-12-17T18:40:20.396Z,25.10
2022-12-17T18:43:02.784Z,26.70
2022-12-17T18:45:26.105Z,24.27
2022-12-17T18:47:49.711Z,25.17
2022-12-17T18:50:13.843Z,25.60
2022-12-17T18:52:37.627Z,25.37
2022-12-17T18:55:00.837Z,24.80
2022-12-17T18:57:24.291Z,23.57
2022-12-17T18:59:49.779Z,25.57
2022-12-17T19:02:14.363Z,26.37
2022-12-17T19:04:38.142Z,25.80
2022-12-17T19:07:01.431Z,24.17
2022-12-17T19:09:29.063Z,23.83
2022-12-17T19:11:52.980Z,24.13
2022-12-17T19:14:17.407Z,24.70
2022-12-17T19:16:41.979Z,24.37
2022-12-17T19:19:06.633Z,24.70
2022-12-17T19:21:30.601Z,23.40
2022-12-17T19:23:58.477Z,23.83
2022-12-17T19:26:23.030Z,23.67
2022-12-17T19:28:50.145Z,24.27
2022-12-17T19:31:13.844Z,24.80
2022-12-17T19:33:39.826Z,23.83
2022-12-17T19:36:08.969Z,22.67
2022-12-17T19:38:32.856Z,22.50
2022-12-17T19:40:56.161Z,23.23
2022-12-17T19:43:21.041Z,23.57
2022-12-17T19:45:44.785Z,23.07
2022-12-17T19:48:08.280Z,22.00
2022-12-17T19:50:36.147Z,21.17
2022-12-17T19:52:59.369Z,22.13
2022-12-17T19:55:22.566Z,22.60
2022-12-17T19:57:45.831Z,21.47
2022-12-17T20:00:11.873Z,22.30
2022-12-17T20:02:38.599Z,20.37
2022-12-17T20:05:01.940Z,21.37
2022-12-17T20:07:26.542Z,22.53
2022-12-17T20:09:49.911Z,20.40
2022-12-17T20:12:13.856Z,21.07
2022-12-17T20:14:37.713Z,20.57
2022-12-17T20:17:02.057Z,19.60
2022-12-17T20:19:27.760Z,20.27
2022-12-17T20:21:51.138Z,19.30
2022-12-17T20:24:17.101Z,19.50
2022-12-17T20:26:40.968Z,18.77
2022-12-17T20:29:04.425Z,18.27
2022-12-17T20:31:27.874Z,18.63
2022-12-17T20:33:51.114Z,18.27
2022-12-17T20:36:18.324Z,19.67
2022-12-17T20:38:42.754Z,19.83
2022-12-17T20:41:13.300Z,17.83
2022-12-17T20:43:36.985Z,18.47
2022-12-17T20:46:03.209Z,19.73
2022-12-17T20:48:26.489Z,19.40
2022-12-17T20:50:50.275Z,18.63
2022-12-17T20:53:13.540Z,18.60
2022-12-17T20:55:36.890Z,18.73
2022-12-17T20:58:01.619Z,19.40
2022-12-17T21:00:24.862Z,18.77
2022-12-17T21:02:48.375Z,18.60
2022-12-17T21:05:12.037Z,18.33
2022-12-17T21:07:35.307Z,18.93
2022-12-17T21:09:59.042Z,19.13
2022-12-17T21:12:22.275Z,18.70
2022-12-17T21:14:46.946Z,19.10
2022-12-17T21:17:10.501Z,18.37
2022-12-17T21:19:33.951Z,18.67
2022-12-17T21:21:57.606Z,19.20
2022-12-17T21:24:20.898Z,18.47
2022-12-17T21:26:46.992Z,16.80
2022-12-17T21:29:11.271Z,17.47
2022-12-17T21:31:40.339Z,17.43
2022-12-17T21:34:06.560Z,18.30
2022-12-17T21:36:32.249Z,17.83
2022-12-17T21:38:56.227Z,18.23
2022-12-17T21:41:22.986Z,17.53
2022-12-17T21:43:46.735Z,18.00
2022-12-17T21:46:12.077Z,16.93
2022-12-17T21:48:41.966Z,16.87
2022-12-17T21:51:08.098Z,16.33
2022-12-17T21:53:32.059Z,16.93
2022-12-17T21:56:03.991Z,17.20
2022-12-17T21:58:27.602Z,16.77
2022-12-17T22:00:50.816Z,16.53
2022-12-17T22:03:14.133Z,16.23
2022-12-17T22:05:39.677Z,17.50
2022-12-17T22:08:03.113Z,17.00
2022-12-17T22:10:41.750Z,16.20
2022-12-17T22:13:27.880Z,15.47
2022-12-17T22:15:53.679Z,16.53
2022-12-17T22:18:17.148Z,16.23
2022-12-17T22:20:41.759Z,16.53
2022-12-17T22:23:05.343Z,16.67
2022-12-17T22:25:28.834Z,15.60
2022-12-17T22:27:52.151Z,14.93
2022-12-17T22:30:36.197Z,15.67
2022-12-17T22:33:05.680Z,15.83
2022-12-17T22:37:04.903Z,15.03
2022-12-17T22:42:43.946Z,15.77
2022-12-17T22:44:35.707Z,15.07
2022-12-17T22:44:43.046Z,16.27
2022-12-17T22:47:00.224Z,15.67
2022-12-17T22:49:23.488Z,15.57
2022-12-17T22:51:48.235Z,14.63
2022-12-17T22:54:13.536Z,14.73
2022-12-17T22:57:11.165Z,15.00
2022-12-17T22:59:22.431Z,14.70
2022-12-17T23:01:45.900Z,13.97
2022-12-17T23:04:11.594Z,13.50
2022-12-17T23:06:34.933Z,13.53
2022-12-17T23:09:00.141Z,12.70
2022-12-17T23:11:31.369Z,12.47
2022-12-17T23:13:55.875Z,13.50
2022-12-17T23:16:19.744Z,13.33
2022-12-17T23:18:44.644Z,12.83
2022-12-17T23:21:09.382Z,12.63
2022-12-17T23:23:32.597Z,12.87
2022-12-17T23:25:57.715Z,13.27
2022-12-17T23:28:20.878Z,12.63
2022-12-17T23:30:44.133Z,13.77
2022-12-17T23:33:07.451Z,12.63
2022-12-17T23:35:30.942Z,13.17
2022-12-17T23:37:54.182Z,13.80
2022-12-17T23:40:17.502Z,13.13
2022-12-17T23:42:42.221Z,12.93
2022-12-17T23:45:06.975Z,12.87
2022-12-17T23:47:30.323Z,12.27
2022-12-17T23:49:53.601Z,12.37
2022-12-17T23:52:16.809Z,12.63
2022-12-17T23:54:40.047Z,12.47
2022-12-17T23:57:03.455Z,12.73
2022-12-17T23:59:28.079Z,13.20
